Česky Dansk Deutsch English Español Suomi Français Magyar Italiano Nederlands norsk Polski Português svenska Türkçe

 

Het Weer

Szombathely (Hongarije)

08:45, 31 januari 2002 (GMT)

NWNNE
WE
SWSSE
Home            
Szombathely Punitz-Gussing Papa Niederosterreich / Wiener Neustadt-Ost Flugplatz Murska Sobota Niederosterreich / Lugplatz Voslau Wien / Schwechat-Flughafen Graz-Thalerhof-Flughafen Szentkiralyszabadja Varazdin Bratislava Ivanka Maribor / Slivnica Siofok Tulln Kaposvar Taszar Zeltweg Krems-Langenlois Nitra Zagreb / Maksimir Piestany Piestany Zagreb / Pleso

Om een weerknop op uw website of weblog te plaatsen, copieer onderstaande code en plak die in uw pagina. In het eerste vakje staat HTML-code, in het tweede vakje UBB-code.


Add to Google

Details

Wind speed:2 bf, 3.9 kn, 2 m/s, 4.5 miles/h, 7.2 km/h
Wind direction:W, 280°
Visibility:Greater than 10000 m, 10 km, 32800 ft, 6.2 miles
Clouds:CAVOC
Temperature:5°C, 41°F
Dew-point:-1°C, 30°F
Atmospheric pressure:1017 hPa, 762.8 mmHg, 30.03 inHg, 1.004 atm
Relative humidity:65.1 %
METAR:LHSY 310845Z 28002MPS CAVOK 05/M01 Q1017

Snelkoppelingen

Actuele weersinformatie van de hele wereld. Voeg locaties toe met het plus (+) symbool. Deze snelkoppelingen kunnen worden toegevoegd aan Google.

Lid van de Technetium groep

website free tracking
StatCounter NetStat W3C Validator

08-03-2021 09:30:28
astro.technetium.be money.technetium.be phote.technetium.be tafeltennistafel.technetium.be www.ligfiets.net